createdAt,value
2023-05-01T00:00:33.456Z,0.95
2023-05-01T00:01:33.505Z,0.97
2023-05-01T00:02:33.509Z,0.98
2023-05-01T00:03:33.623Z,0.93
2023-05-01T00:04:33.606Z,0.98
2023-05-01T00:05:33.572Z,0.96
2023-05-01T00:06:33.659Z,0.97
2023-05-01T00:07:33.632Z,0.96
2023-05-01T00:08:33.612Z,0.97
2023-05-01T00:09:33.660Z,0.96
2023-05-01T00:10:33.651Z,0.97
2023-05-01T00:11:33.681Z,0.97
2023-05-01T00:12:33.674Z,0.96
2023-05-01T00:13:33.668Z,0.96
2023-05-01T00:14:33.689Z,0.96
2023-05-01T00:15:33.664Z,0.95
2023-05-01T00:16:33.756Z,0.96
2023-05-01T00:17:33.713Z,0.97
2023-05-01T00:18:33.654Z,0.95
2023-05-01T00:19:33.675Z,0.96
2023-05-01T00:20:33.676Z,0.97
2023-05-01T00:21:33.701Z,0.96
2023-05-01T00:22:33.694Z,0.94
2023-05-01T00:23:33.699Z,0.96
2023-05-01T00:24:33.704Z,0.96
2023-05-01T00:25:33.673Z,0.96
2023-05-01T00:26:33.691Z,0.96
2023-05-01T00:27:33.736Z,0.96
2023-05-01T00:28:33.709Z,0.97
2023-05-01T00:29:33.691Z,0.94
2023-05-01T00:30:33.687Z,0.95
2023-05-01T00:31:33.759Z,0.95
2023-05-01T00:32:33.782Z,0.96
2023-05-01T00:33:33.708Z,0.96
2023-05-01T00:34:33.717Z,0.96
2023-05-01T00:35:33.644Z,0.94
2023-05-01T00:36:33.660Z,0.96
2023-05-01T00:37:33.694Z,0.96
2023-05-01T00:38:33.651Z,0.96
2023-05-01T00:39:33.638Z,0.95
2023-05-01T00:40:33.659Z,0.96
2023-05-01T00:41:33.586Z,0.95
2023-05-01T00:42:33.605Z,0.94
2023-05-01T00:43:33.635Z,0.95
2023-05-01T00:44:33.636Z,0.96
2023-05-01T00:45:33.616Z,0.95
2023-05-01T00:46:33.631Z,0.96
2023-05-01T00:47:33.610Z,0.95
2023-05-01T00:48:33.640Z,0.95
2023-05-01T00:49:33.619Z,0.95
2023-05-01T00:50:33.629Z,0.95
2023-05-01T00:51:33.597Z,0.96
2023-05-01T00:52:33.596Z,0.94
2023-05-01T00:53:33.598Z,0.96
2023-05-01T00:54:33.646Z,0.95
2023-05-01T00:55:33.717Z,0.95
2023-05-01T00:56:33.641Z,0.94
2023-05-01T00:57:33.608Z,0.95
2023-05-01T00:58:33.640Z,0.94
2023-05-01T00:59:34.763Z,0.93
2023-05-01T01:00:33.622Z,0.94
2023-05-01T01:01:33.677Z,0.94
2023-05-01T01:02:33.664Z,0.94
2023-05-01T01:03:33.656Z,0.93
2023-05-01T01:04:33.774Z,0.94
2023-05-01T01:05:33.659Z,0.94
2023-05-01T01:06:33.736Z,0.94
2023-05-01T01:07:33.665Z,0.93
2023-05-01T01:08:33.675Z,0.93
2023-05-01T01:09:33.681Z,0.93
2023-05-01T01:10:33.716Z,0.94
2023-05-01T01:11:33.716Z,0.94
2023-05-01T01:12:33.702Z,0.94
2023-05-01T01:13:33.745Z,0.93
2023-05-01T01:14:33.736Z,0.94
2023-05-01T01:15:33.718Z,0.94
2023-05-01T01:16:33.802Z,0.93
2023-05-01T01:17:33.768Z,0.94
2023-05-01T01:18:33.743Z,0.94
2023-05-01T01:19:33.750Z,0.94
2023-05-01T01:20:33.749Z,0.93
2023-05-01T01:21:33.778Z,0.94
2023-05-01T01:22:33.801Z,0.94
2023-05-01T01:23:33.774Z,0.93
2023-05-01T01:24:33.803Z,0.93
2023-05-01T01:25:33.856Z,0.92
2023-05-01T01:26:33.817Z,0.93
2023-05-01T01:27:33.870Z,0.93
2023-05-01T01:28:33.881Z,0.93
2023-05-01T01:29:33.837Z,0.93
2023-05-01T01:30:33.903Z,0.93
2023-05-01T01:31:34.014Z,0.92
2023-05-01T01:32:33.938Z,0.93
2023-05-01T01:33:33.915Z,0.93
2023-05-01T01:34:33.925Z,0.93
2023-05-01T01:35:33.919Z,0.93
2023-05-01T01:36:33.931Z,0.93
2023-05-01T01:37:33.992Z,0.92
2023-05-01T01:38:33.973Z,0.92
2023-05-01T01:39:34.008Z,0.92
2023-05-01T01:40:33.963Z,0.93
2023-05-01T01:41:34.030Z,0.93
2023-05-01T01:42:34.014Z,0.92
2023-05-01T01:43:34.013Z,0.92
2023-05-01T01:44:34.091Z,0.92
2023-05-01T01:45:34.050Z,0.91
2023-05-01T01:46:34.173Z,0.92
2023-05-01T01:47:34.197Z,0.92
2023-05-01T01:48:34.117Z,0.93
2023-05-01T01:49:34.183Z,0.92
2023-05-01T01:50:34.194Z,0.91
2023-05-01T01:51:34.191Z,0.92
2023-05-01T01:52:34.207Z,0.93
2023-05-01T01:53:34.199Z,0.92
2023-05-01T01:54:34.264Z,0.92
2023-05-01T01:55:34.293Z,0.92
2023-05-01T01:56:34.305Z,0.92
2023-05-01T01:57:34.323Z,0.92
2023-05-01T01:58:34.343Z,0.92
2023-05-01T01:59:34.701Z,0.92
2023-05-01T02:00:34.415Z,0.91
2023-05-01T02:01:34.472Z,0.90
2023-05-01T02:02:34.494Z,0.91
2023-05-01T02:03:34.529Z,0.91
2023-05-01T02:04:34.472Z,0.91
2023-05-01T02:05:34.546Z,0.91
2023-05-01T02:06:34.589Z,0.91
2023-05-01T02:07:34.562Z,0.91
2023-05-01T02:08:34.561Z,0.92
2023-05-01T02:09:34.549Z,0.91
2023-05-01T02:10:34.572Z,0.91
2023-05-01T02:11:34.637Z,0.91
2023-05-01T02:12:34.663Z,0.91
2023-05-01T02:13:34.707Z,0.91
2023-05-01T02:14:34.683Z,0.91
2023-05-01T02:15:34.718Z,0.91
2023-05-01T02:16:34.849Z,0.91
2023-05-01T02:17:34.797Z,0.91
2023-05-01T02:18:34.791Z,0.91
2023-05-01T02:19:34.803Z,0.91
2023-05-01T02:20:34.827Z,0.91
2023-05-01T02:21:34.866Z,0.91
2023-05-01T02:22:34.876Z,0.92
2023-05-01T02:23:34.929Z,0.91
2023-05-01T02:24:34.958Z,0.90
2023-05-01T02:25:34.941Z,0.91
2023-05-01T02:26:35.009Z,0.91
2023-05-01T02:27:34.967Z,0.91
2023-05-01T02:28:35.010Z,0.91
2023-05-01T02:29:35.080Z,0.91
2023-05-01T02:30:35.073Z,0.91
2023-05-01T02:31:35.109Z,0.90
2023-05-01T02:32:35.193Z,0.92
2023-05-01T02:33:35.150Z,0.90
2023-05-01T02:34:35.170Z,0.91
2023-05-01T02:35:35.218Z,0.91
2023-05-01T02:36:35.193Z,0.91
2023-05-01T02:37:35.278Z,0.91
2023-05-01T02:38:35.324Z,0.90
2023-05-01T02:39:35.316Z,0.91
2023-05-01T02:40:35.360Z,0.90
2023-05-01T02:41:35.355Z,0.91
2023-05-01T02:42:35.419Z,0.91
2023-05-01T02:43:35.428Z,0.91
2023-05-01T02:44:35.488Z,0.90
2023-05-01T02:45:35.523Z,0.91
2023-05-01T02:46:35.516Z,0.90
2023-05-01T02:47:35.670Z,0.90
2023-05-01T02:48:35.563Z,0.90
2023-05-01T02:49:35.565Z,0.90
2023-05-01T02:50:35.614Z,0.90
2023-05-01T02:51:35.681Z,0.90
2023-05-01T02:52:35.699Z,0.90
2023-05-01T02:53:35.686Z,0.90
2023-05-01T02:54:35.751Z,0.90
2023-05-01T02:55:35.785Z,0.90
2023-05-01T02:56:35.821Z,0.90
2023-05-01T02:57:35.815Z,0.91
2023-05-01T02:58:35.889Z,0.90
2023-05-01T02:59:35.898Z,0.90
2023-05-01T03:00:35.959Z,0.90
2023-05-01T03:01:36.050Z,0.91
2023-05-01T03:02:36.062Z,0.90
2023-05-01T03:03:36.078Z,0.90
2023-05-01T03:04:36.099Z,0.90
2023-05-01T03:05:36.131Z,0.91
2023-05-01T03:06:36.253Z,0.90
2023-05-01T03:07:36.208Z,0.89
2023-05-01T03:08:36.209Z,0.90
2023-05-01T03:09:36.256Z,0.91
2023-05-01T03:10:36.330Z,0.90
2023-05-01T03:11:36.328Z,0.90
2023-05-01T03:12:36.385Z,0.91
2023-05-01T03:13:36.462Z,0.91
2023-05-01T03:14:36.484Z,0.90
2023-05-01T03:15:36.517Z,0.91
2023-05-01T03:16:36.546Z,0.90
2023-05-01T03:17:36.593Z,0.90
2023-05-01T03:18:36.587Z,0.90
2023-05-01T03:19:36.700Z,0.90
2023-05-01T03:20:36.711Z,0.90
2023-05-01T03:21:36.758Z,0.90
2023-05-01T03:22:36.790Z,0.90
2023-05-01T03:23:36.816Z,0.91
2023-05-01T03:24:36.876Z,0.89
2023-05-01T03:25:36.904Z,0.90
2023-05-01T03:26:36.946Z,0.90
2023-05-01T03:27:36.980Z,0.90
2023-05-01T03:28:37.006Z,0.90
2023-05-01T03:29:37.032Z,0.89
2023-05-01T03:30:37.078Z,0.90
2023-05-01T03:31:37.270Z,0.91
2023-05-01T03:32:37.220Z,0.90
2023-05-01T03:33:37.217Z,0.89
2023-05-01T03:34:37.212Z,0.91
2023-05-01T03:35:37.303Z,0.90
2023-05-01T03:36:37.331Z,0.90
2023-05-01T03:37:37.373Z,0.91
2023-05-01T03:38:37.394Z,0.90
2023-05-01T03:39:37.445Z,0.90
2023-05-01T03:40:37.492Z,0.92
2023-05-01T03:41:37.570Z,0.91
2023-05-01T03:42:37.574Z,0.91
2023-05-01T03:43:37.571Z,0.91
2023-05-01T03:44:37.615Z,0.90
2023-05-01T03:45:37.684Z,0.91
2023-05-01T03:46:37.841Z,0.90
2023-05-01T03:47:37.782Z,0.90
2023-05-01T03:48:37.815Z,0.90
2023-05-01T03:49:37.862Z,0.91
2023-05-01T03:50:37.927Z,0.90
2023-05-01T03:51:37.910Z,0.90
2023-05-01T03:52:37.956Z,0.90
2023-05-01T03:53:38.049Z,0.91
2023-05-01T03:54:38.124Z,0.92
2023-05-01T03:55:38.113Z,0.90
2023-05-01T03:56:38.144Z,0.89
2023-05-01T03:57:38.271Z,0.91
2023-05-01T03:58:38.229Z,0.90
2023-05-01T03:59:38.296Z,0.90
2023-05-01T04:00:38.296Z,0.90
2023-05-01T04:01:38.409Z,0.90
2023-05-01T04:02:38.440Z,0.89
2023-05-01T04:03:38.720Z,0.88
2023-05-01T04:04:38.668Z,0.83
2023-05-01T04:05:38.584Z,0.79
2023-05-01T04:06:38.701Z,0.76
2023-05-01T04:07:38.704Z,0.72
2023-05-01T04:08:38.771Z,0.70
2023-05-01T04:09:38.826Z,0.67
2023-05-01T04:10:38.848Z,0.63
2023-05-01T04:11:38.952Z,0.61
2023-05-01T04:12:38.971Z,0.59
2023-05-01T04:13:39.017Z,0.58
2023-05-01T04:14:38.994Z,0.54
2023-05-01T04:15:39.103Z,0.52
2023-05-01T04:16:39.142Z,0.51
2023-05-01T04:17:39.071Z,0.50
2023-05-01T04:18:39.088Z,0.51
2023-05-01T04:19:39.059Z,0.51
2023-05-01T04:20:39.028Z,0.51
2023-05-01T04:21:39.024Z,0.50
2023-05-01T04:22:39.094Z,0.50
2023-05-01T04:23:39.080Z,0.50
2023-05-01T04:24:39.080Z,0.50
2023-05-01T04:25:39.104Z,0.50
2023-05-01T04:26:39.097Z,0.50
2023-05-01T04:27:39.103Z,0.50
2023-05-01T04:28:39.115Z,0.51
2023-05-01T04:29:39.116Z,0.51
2023-05-01T04:30:39.146Z,0.51
2023-05-01T04:31:39.222Z,0.50
2023-05-01T04:32:39.234Z,0.51
2023-05-01T04:33:39.201Z,0.51
2023-05-01T04:34:39.209Z,0.51
2023-05-01T04:35:39.221Z,0.51
2023-05-01T04:36:39.223Z,0.51
2023-05-01T04:37:39.377Z,0.51
2023-05-01T04:38:39.233Z,0.51
2023-05-01T04:39:39.238Z,0.51
2023-05-01T04:40:39.265Z,0.51
2023-05-01T04:41:39.248Z,0.51
2023-05-01T04:42:39.310Z,0.51
2023-05-01T04:43:39.230Z,0.52
2023-05-01T04:44:39.212Z,0.52
2023-05-01T04:45:39.233Z,0.51
2023-05-01T04:46:39.305Z,0.52
2023-05-01T04:47:39.358Z,0.52
2023-05-01T04:48:39.232Z,0.53
2023-05-01T04:49:39.261Z,0.52
2023-05-01T04:50:39.208Z,0.53
2023-05-01T04:51:39.225Z,0.53
2023-05-01T04:52:39.256Z,0.54
2023-05-01T04:53:39.219Z,0.53
2023-05-01T04:54:39.234Z,0.54
2023-05-01T04:55:39.242Z,0.54
2023-05-01T04:56:39.279Z,0.54
2023-05-01T04:57:39.308Z,0.55
2023-05-01T04:58:39.308Z,0.54
2023-05-01T04:59:39.382Z,0.55
2023-05-01T05:00:39.439Z,0.56
2023-05-01T05:01:39.494Z,0.56
2023-05-01T05:02:39.526Z,0.55
2023-05-01T05:03:39.504Z,0.56
2023-05-01T05:04:39.466Z,0.55
2023-05-01T05:05:39.523Z,0.56
2023-05-01T05:06:39.675Z,0.56
2023-05-01T05:07:39.516Z,0.58
2023-05-01T05:08:39.532Z,0.56
2023-05-01T05:09:39.511Z,0.57
2023-05-01T05:10:39.502Z,0.57
2023-05-01T05:11:39.551Z,0.58
2023-05-01T05:12:39.552Z,0.58
2023-05-01T05:13:39.569Z,0.58
2023-05-01T05:14:39.594Z,0.59
2023-05-01T05:15:39.594Z,0.58
2023-05-01T05:16:39.599Z,0.58
2023-05-01T05:17:39.615Z,0.59
2023-05-01T05:18:39.598Z,0.59
2023-05-01T05:19:39.613Z,0.59
2023-05-01T05:20:39.610Z,0.60
2023-05-01T05:21:39.618Z,0.61
2023-05-01T05:22:39.621Z,0.61
2023-05-01T05:23:39.638Z,0.60
2023-05-01T05:24:39.643Z,0.60
2023-05-01T05:25:39.725Z,0.60
2023-05-01T05:26:39.601Z,0.61
2023-05-01T05:27:39.682Z,0.61
2023-05-01T05:28:39.621Z,0.62
2023-05-01T05:29:39.618Z,0.61
2023-05-01T05:30:39.628Z,0.62
2023-05-01T05:31:39.683Z,0.62
2023-05-01T05:32:39.663Z,0.63
2023-05-01T05:33:39.647Z,0.62
2023-05-01T05:34:39.651Z,0.61
2023-05-01T05:35:39.760Z,0.63
2023-05-01T05:36:39.693Z,0.64
2023-05-01T05:37:39.668Z,0.64
2023-05-01T05:38:39.687Z,0.64
2023-05-01T05:39:39.702Z,0.64
2023-05-01T05:40:39.693Z,0.64
2023-05-01T05:41:39.652Z,0.64
2023-05-01T05:42:39.664Z,0.64
2023-05-01T05:43:39.663Z,0.64
2023-05-01T05:44:39.681Z,0.63
2023-05-01T05:45:39.661Z,0.64
2023-05-01T05:46:39.725Z,0.65
2023-05-01T05:47:39.653Z,0.65
2023-05-01T05:48:39.652Z,0.65
2023-05-01T05:49:39.662Z,0.64
2023-05-01T05:50:39.616Z,0.66
2023-05-01T05:51:39.622Z,0.65
2023-05-01T05:52:39.623Z,0.64
2023-05-01T05:53:39.676Z,0.66
2023-05-01T05:54:39.612Z,0.65
2023-05-01T05:55:39.589Z,0.65
2023-05-01T05:56:39.866Z,0.64
2023-05-01T05:57:39.661Z,0.65
2023-05-01T05:58:39.607Z,0.65
2023-05-01T05:59:39.620Z,0.64
2023-05-01T06:00:39.636Z,0.65
2023-05-01T06:01:39.693Z,0.65
2023-05-01T06:02:39.795Z,0.65
2023-05-01T06:03:39.814Z,0.64
2023-05-01T06:04:39.624Z,0.65
2023-05-01T06:05:39.746Z,0.65
2023-05-01T06:06:39.631Z,0.66
2023-05-01T06:07:39.669Z,0.67
2023-05-01T06:08:39.645Z,0.66
2023-05-01T06:09:39.669Z,0.66
2023-05-01T06:10:39.662Z,0.66
2023-05-01T06:11:39.656Z,0.66
2023-05-01T06:12:41.677Z,0.65
2023-05-01T06:13:40.598Z,0.66
2023-05-01T06:14:39.624Z,0.66
2023-05-01T06:15:39.641Z,0.66
2023-05-01T06:16:39.592Z,0.66
2023-05-01T06:17:39.572Z,0.67
2023-05-01T06:18:39.538Z,0.67
2023-05-01T06:19:39.554Z,0.67
2023-05-01T06:20:39.563Z,0.67
2023-05-01T06:21:39.520Z,0.67
2023-05-01T06:22:39.521Z,0.66
2023-05-01T06:23:39.474Z,0.67
2023-05-01T06:24:39.628Z,0.67
2023-05-01T06:25:39.479Z,0.67
2023-05-01T06:26:39.501Z,0.66
2023-05-01T06:27:39.497Z,0.66
2023-05-01T06:28:39.471Z,0.67
2023-05-01T06:29:39.472Z,0.68
2023-05-01T06:30:39.484Z,0.67
2023-05-01T06:31:39.439Z,0.67
2023-05-01T06:32:39.440Z,0.69
2023-05-01T06:33:39.495Z,0.67
2023-05-01T06:34:39.461Z,0.68
2023-05-01T06:35:39.467Z,0.69
2023-05-01T06:36:39.488Z,0.67
2023-05-01T06:37:39.422Z,0.69
2023-05-01T06:38:39.430Z,0.68
2023-05-01T06:39:39.395Z,0.68
2023-05-01T06:40:39.435Z,0.68
2023-05-01T06:41:39.392Z,0.68
2023-05-01T06:42:39.404Z,0.69
2023-05-01T06:43:39.412Z,0.68
2023-05-01T06:44:39.365Z,0.68
2023-05-01T06:45:39.369Z,0.68
2023-05-01T06:46:39.415Z,0.68
2023-05-01T06:47:39.435Z,0.67
2023-05-01T06:48:39.393Z,0.70
2023-05-01T06:49:39.398Z,0.67
2023-05-01T06:50:39.352Z,0.69
2023-05-01T06:51:39.417Z,0.68
2023-05-01T06:52:39.413Z,0.68
2023-05-01T06:53:39.391Z,0.69
2023-05-01T06:54:39.378Z,0.68
2023-05-01T06:55:39.383Z,0.68
2023-05-01T06:56:39.400Z,0.69
2023-05-01T06:57:39.401Z,0.69
2023-05-01T06:58:39.344Z,0.68
2023-05-01T06:59:39.372Z,0.68
2023-05-01T07:00:39.437Z,0.70
2023-05-01T07:01:39.409Z,0.68
2023-05-01T07:02:39.517Z,0.69
2023-05-01T07:03:39.539Z,0.69
2023-05-01T07:04:40.376Z,0.68
2023-05-01T07:05:39.445Z,0.70
2023-05-01T07:06:39.552Z,0.69
2023-05-01T07:07:47.349Z,0.70
2023-05-01T07:08:40.508Z,0.70
2023-05-01T07:09:39.490Z,0.70
2023-05-01T07:10:41.297Z,0.70
2023-05-01T07:11:39.615Z,0.70
2023-05-01T07:12:39.710Z,0.70
2023-05-01T07:13:39.730Z,0.71
2023-05-01T07:14:39.742Z,0.72
2023-05-01T07:15:39.779Z,0.70
2023-05-01T07:16:39.783Z,0.71
2023-05-01T07:17:39.769Z,0.71
2023-05-01T07:18:39.841Z,0.70
2023-05-01T07:19:39.806Z,0.70
2023-05-01T07:20:39.867Z,0.70
2023-05-01T07:21:39.878Z,0.72
2023-05-01T07:22:39.919Z,0.72
2023-05-01T07:23:40.011Z,0.71
2023-05-01T07:24:39.994Z,0.71
2023-05-01T07:25:40.053Z,0.72
2023-05-01T07:26:40.065Z,0.71
2023-05-01T07:27:40.129Z,0.72
2023-05-01T07:28:40.124Z,0.73
2023-05-01T07:29:40.175Z,0.71
2023-05-01T07:30:40.452Z,0.71
2023-05-01T07:31:40.302Z,0.74
2023-05-01T07:32:40.309Z,0.73
2023-05-01T07:33:40.257Z,0.72
2023-05-01T07:34:40.321Z,0.74
2023-05-01T07:35:40.342Z,0.74
2023-05-01T07:36:40.392Z,0.73
2023-05-01T07:37:40.424Z,0.72
2023-05-01T07:38:40.507Z,0.73
2023-05-01T07:39:40.561Z,0.73
2023-05-01T07:40:40.529Z,0.73
2023-05-01T07:41:40.591Z,0.74
2023-05-01T07:42:40.585Z,0.73
2023-05-01T07:43:40.637Z,0.72
2023-05-01T07:44:40.680Z,0.73
2023-05-01T07:45:40.789Z,0.74
2023-05-01T07:46:40.787Z,0.72
2023-05-01T07:47:40.936Z,0.74
2023-05-01T07:48:40.894Z,0.73
2023-05-01T07:49:40.909Z,0.73
2023-05-01T07:50:40.997Z,0.73
2023-05-01T07:51:41.036Z,0.73
2023-05-01T07:52:41.071Z,0.74
2023-05-01T07:53:41.124Z,0.72
2023-05-01T07:54:41.148Z,0.73
2023-05-01T07:55:41.227Z,0.74
2023-05-01T07:56:41.295Z,0.73
2023-05-01T07:57:41.327Z,0.72
2023-05-01T07:58:41.403Z,0.74
2023-05-01T07:59:41.397Z,0.73
2023-05-01T08:00:41.436Z,0.72
2023-05-01T08:01:41.495Z,0.73
2023-05-01T08:02:41.716Z,0.73
2023-05-01T08:03:41.744Z,0.74
2023-05-01T08:04:42.005Z,0.73
2023-05-01T08:05:41.735Z,0.72
2023-05-01T08:06:41.877Z,0.73
2023-05-01T08:07:41.878Z,0.73
2023-05-01T08:08:41.937Z,0.73
2023-05-01T08:09:42.001Z,0.72
2023-05-01T08:10:42.063Z,0.72
2023-05-01T08:11:42.119Z,0.72
2023-05-01T08:12:42.171Z,0.73
2023-05-01T08:13:42.259Z,0.72
2023-05-01T08:14:42.275Z,0.72
2023-05-01T08:15:42.404Z,0.73
2023-05-01T08:16:42.419Z,0.73
2023-05-01T08:17:42.546Z,0.73
2023-05-01T08:18:42.515Z,0.73
2023-05-01T08:19:42.586Z,0.72
2023-05-01T08:20:42.643Z,0.72
2023-05-01T08:21:42.648Z,0.73
2023-05-01T08:22:42.720Z,0.72
2023-05-01T08:23:42.786Z,0.74
2023-05-01T08:24:42.822Z,0.73
2023-05-01T08:25:42.871Z,0.73
2023-05-01T08:26:42.922Z,0.73
2023-05-01T08:27:42.990Z,0.73
2023-05-01T08:28:43.051Z,0.74
2023-05-01T08:29:43.116Z,0.73
2023-05-01T08:30:43.164Z,0.74
2023-05-01T08:31:44.044Z,0.73
2023-05-01T08:32:43.222Z,0.73
2023-05-01T08:33:43.317Z,0.74
2023-05-01T08:34:43.295Z,0.74
2023-05-01T08:35:43.371Z,0.74
2023-05-01T08:36:43.356Z,0.73
2023-05-01T08:37:43.418Z,0.74
2023-05-01T08:38:43.437Z,0.74
2023-05-01T08:39:43.481Z,0.75
2023-05-01T08:40:43.519Z,0.74
2023-05-01T08:41:43.603Z,0.74
2023-05-01T08:42:43.616Z,0.74
2023-05-01T08:43:43.671Z,0.74
2023-05-01T08:44:43.670Z,0.75
2023-05-01T08:45:43.732Z,0.74
2023-05-01T08:46:43.758Z,0.74
2023-05-01T08:47:43.780Z,0.75
2023-05-01T08:48:43.789Z,0.74
2023-05-01T08:49:43.801Z,0.75
2023-05-01T08:50:43.848Z,0.74
2023-05-01T08:51:43.874Z,0.75
2023-05-01T08:52:43.872Z,0.75
2023-05-01T08:53:43.917Z,0.75
2023-05-01T08:54:43.987Z,0.75
2023-05-01T08:55:43.975Z,0.75
2023-05-01T08:56:44.010Z,0.74
2023-05-01T08:57:44.013Z,0.74
2023-05-01T08:58:44.048Z,0.75
2023-05-01T08:59:44.058Z,0.74
2023-05-01T09:00:44.088Z,0.75
2023-05-01T09:01:44.188Z,0.75
2023-05-01T09:02:44.187Z,0.75
2023-05-01T09:03:44.308Z,0.75
2023-05-01T09:04:44.164Z,0.76
2023-05-01T09:05:44.175Z,0.76
2023-05-01T09:06:44.325Z,0.76
2023-05-01T09:07:44.239Z,0.76
2023-05-01T09:08:44.234Z,0.76
2023-05-01T09:09:44.341Z,0.76
2023-05-01T09:10:44.278Z,0.76
2023-05-01T09:11:44.305Z,0.76
2023-05-01T09:12:44.422Z,0.76
2023-05-01T09:13:44.317Z,0.76
2023-05-01T09:14:44.325Z,0.77
2023-05-01T09:15:44.433Z,0.77
2023-05-01T09:16:44.425Z,0.77
2023-05-01T09:17:44.417Z,0.77
2023-05-01T09:18:44.383Z,0.77
2023-05-01T09:19:44.426Z,0.78
2023-05-01T09:20:44.398Z,0.78
2023-05-01T09:21:44.444Z,0.77
2023-05-01T09:22:44.444Z,0.77
2023-05-01T09:23:44.388Z,0.77
2023-05-01T09:24:44.414Z,0.77
2023-05-01T09:25:44.396Z,0.77
2023-05-01T09:26:44.458Z,0.78
2023-05-01T09:27:44.540Z,0.78
2023-05-01T09:28:44.422Z,0.77
2023-05-01T09:29:44.506Z,0.78
2023-05-01T09:30:44.438Z,0.78
2023-05-01T09:31:44.561Z,0.79
2023-05-01T09:32:44.498Z,0.78
2023-05-01T09:33:44.458Z,0.78
2023-05-01T09:34:44.445Z,0.78
2023-05-01T09:35:44.433Z,0.80
2023-05-01T09:36:44.482Z,0.78
2023-05-01T09:37:45.213Z,0.78
2023-05-01T09:38:44.457Z,0.79
2023-05-01T09:39:44.392Z,0.79
2023-05-01T09:40:44.466Z,0.79
2023-05-01T09:41:44.468Z,0.77
2023-05-01T09:42:44.465Z,0.79
2023-05-01T09:43:44.525Z,0.79
2023-05-01T09:44:44.569Z,0.78
2023-05-01T09:45:44.668Z,0.79
2023-05-01T09:46:44.653Z,0.78
2023-05-01T09:47:44.779Z,0.80
2023-05-01T09:48:44.825Z,0.79
2023-05-01T09:49:44.830Z,0.79
2023-05-01T09:50:44.921Z,0.79
2023-05-01T09:51:45.068Z,0.80
2023-05-01T09:52:45.062Z,0.79
2023-05-01T09:53:45.108Z,0.79
2023-05-01T09:54:45.182Z,0.79
2023-05-01T09:55:45.231Z,0.77
2023-05-01T09:56:45.271Z,0.79
2023-05-01T09:57:45.337Z,0.80
2023-05-01T09:58:45.416Z,0.80
2023-05-01T09:59:45.458Z,0.80
2023-05-01T10:00:45.531Z,0.78
2023-05-01T10:01:45.688Z,0.78
2023-05-01T10:02:45.709Z,0.79
2023-05-01T10:03:45.846Z,0.79
2023-05-01T10:04:45.762Z,0.79
2023-05-01T10:05:45.800Z,0.80
2023-05-01T10:06:45.898Z,0.80
2023-05-01T10:07:45.901Z,0.80
2023-05-01T10:08:45.967Z,0.81
2023-05-01T10:09:46.006Z,0.82
2023-05-01T10:10:46.112Z,0.79
2023-05-01T10:11:46.099Z,0.82
2023-05-01T10:12:46.134Z,0.80
2023-05-01T10:13:46.196Z,0.78
2023-05-01T10:14:46.293Z,0.81
2023-05-01T10:15:46.311Z,0.81
2023-05-01T10:16:46.379Z,0.80
2023-05-01T10:17:46.447Z,0.80
2023-05-01T10:18:46.482Z,0.81
2023-05-01T10:19:46.577Z,0.78
2023-05-01T10:20:46.551Z,0.80
2023-05-01T10:21:46.585Z,0.82
2023-05-01T10:22:46.841Z,0.80
2023-05-01T10:23:46.676Z,0.79
2023-05-01T10:24:46.762Z,0.81
2023-05-01T10:25:46.773Z,0.81
2023-05-01T10:26:46.838Z,0.81
2023-05-01T10:27:46.915Z,0.82
2023-05-01T10:28:46.934Z,0.81
2023-05-01T10:29:46.933Z,0.81
2023-05-01T10:30:47.010Z,0.81
2023-05-01T10:31:47.108Z,0.81
2023-05-01T10:32:47.113Z,0.82
2023-05-01T10:33:47.127Z,0.82
2023-05-01T10:34:47.122Z,0.81
2023-05-01T10:35:47.184Z,0.79
2023-05-01T10:36:47.219Z,0.82
2023-05-01T10:37:47.283Z,0.83
2023-05-01T10:38:47.260Z,0.79
2023-05-01T10:39:47.316Z,0.81
2023-05-01T10:40:47.367Z,0.81
2023-05-01T10:41:47.415Z,0.81
2023-05-01T10:42:47.424Z,0.80
2023-05-01T10:43:47.442Z,0.78
2023-05-01T10:44:47.462Z,0.80
2023-05-01T10:45:47.498Z,0.80
2023-05-01T10:46:47.581Z,0.83
2023-05-01T10:47:47.620Z,0.80
2023-05-01T10:48:47.564Z,0.80
2023-05-01T10:49:47.616Z,0.80
2023-05-01T10:50:47.646Z,0.80
2023-05-01T10:51:47.629Z,0.82
2023-05-01T10:52:47.627Z,0.81
2023-05-01T10:53:47.694Z,0.80
2023-05-01T10:54:47.708Z,0.80
2023-05-01T10:55:47.737Z,0.82
2023-05-01T10:56:47.720Z,0.82
2023-05-01T10:57:47.676Z,0.79
2023-05-01T10:58:47.684Z,0.80
2023-05-01T10:59:47.745Z,0.84
2023-05-01T11:00:47.792Z,0.81
2023-05-01T11:01:47.836Z,0.81
2023-05-01T11:02:47.799Z,0.81
2023-05-01T11:03:47.755Z,0.79
2023-05-01T11:04:47.792Z,0.82
2023-05-01T11:05:47.809Z,0.80
2023-05-01T11:06:47.826Z,0.78
2023-05-01T11:07:47.793Z,0.83
2023-05-01T11:08:47.792Z,0.80
2023-05-01T11:09:47.809Z,0.80
2023-05-01T11:10:47.830Z,0.81
2023-05-01T11:11:47.868Z,0.79
2023-05-01T11:12:47.870Z,0.80
2023-05-01T11:13:47.882Z,0.79
2023-05-01T11:14:47.852Z,0.79
2023-05-01T11:15:47.907Z,0.83
2023-05-01T11:16:48.005Z,0.80
2023-05-01T11:17:47.929Z,0.82
2023-05-01T11:18:47.891Z,0.80
2023-05-01T11:19:47.931Z,0.80
2023-05-01T11:20:47.922Z,0.82
2023-05-01T11:21:47.941Z,0.81
2023-05-01T11:22:47.939Z,0.82
2023-05-01T11:23:47.943Z,0.80
2023-05-01T11:24:47.975Z,0.81
2023-05-01T11:25:47.932Z,0.81
2023-05-01T11:26:47.971Z,0.80
2023-05-01T11:27:48.081Z,0.81
2023-05-01T11:28:47.982Z,0.80
2023-05-01T11:29:47.988Z,0.81
2023-05-01T11:30:47.945Z,0.81
2023-05-01T11:31:48.002Z,0.81
2023-05-01T11:32:47.992Z,0.82
2023-05-01T11:33:47.988Z,0.80
2023-05-01T11:34:47.981Z,0.81
2023-05-01T11:35:47.980Z,0.82
2023-05-01T11:36:47.990Z,0.81
2023-05-01T11:37:47.938Z,0.82
2023-05-01T11:38:48.005Z,0.83
2023-05-01T11:39:47.956Z,0.83
2023-05-01T11:40:47.966Z,0.82
2023-05-01T11:41:48.011Z,0.81
2023-05-01T11:42:47.948Z,0.82
2023-05-01T11:43:48.039Z,0.84
2023-05-01T11:44:47.991Z,0.82
2023-05-01T11:45:48.017Z,0.83
2023-05-01T11:46:48.011Z,0.84
2023-05-01T11:47:48.078Z,0.83
2023-05-01T11:48:47.970Z,0.85
2023-05-01T11:49:47.968Z,0.84
2023-05-01T11:50:47.979Z,0.84
2023-05-01T11:51:47.934Z,0.84
2023-05-01T11:52:47.961Z,0.84
2023-05-01T11:53:47.932Z,0.84
2023-05-01T11:54:47.961Z,0.84
2023-05-01T11:55:47.987Z,0.85
2023-05-01T11:56:47.952Z,0.83
2023-05-01T11:57:47.971Z,0.85
2023-05-01T11:58:47.923Z,0.84
2023-05-01T11:59:48.006Z,0.85
2023-05-01T12:00:48.009Z,0.84
2023-05-01T12:01:47.911Z,0.84
2023-05-01T12:02:48.143Z,0.86
2023-05-01T12:03:48.036Z,0.84
2023-05-01T12:04:48.061Z,0.84
2023-05-01T12:05:47.936Z,0.85
2023-05-01T12:06:48.004Z,0.85
2023-05-01T12:07:47.955Z,0.87
2023-05-01T12:08:47.961Z,0.84
2023-05-01T12:09:47.915Z,0.84
2023-05-01T12:10:47.916Z,0.85
2023-05-01T12:11:48.408Z,0.84
2023-05-01T12:12:47.923Z,0.86
2023-05-01T12:13:47.929Z,0.85
2023-05-01T12:14:47.890Z,0.85
2023-05-01T12:15:47.892Z,0.87
2023-05-01T12:16:48.027Z,0.86
2023-05-01T12:17:47.974Z,0.86
2023-05-01T12:18:47.902Z,0.86
2023-05-01T12:19:47.908Z,0.86
2023-05-01T12:20:47.981Z,0.85
2023-05-01T12:21:47.990Z,0.85
2023-05-01T12:22:48.013Z,0.85
2023-05-01T12:23:48.047Z,0.84
2023-05-01T12:24:48.046Z,0.85
2023-05-01T12:25:48.074Z,0.85
2023-05-01T12:26:48.118Z,0.86
2023-05-01T12:27:48.173Z,0.85
2023-05-01T12:28:48.176Z,0.85
2023-05-01T12:29:48.174Z,0.86
2023-05-01T12:30:48.257Z,0.85
2023-05-01T12:31:48.441Z,0.85
2023-05-01T12:32:48.394Z,0.86
2023-05-01T12:33:48.373Z,0.84
2023-05-01T12:34:48.431Z,0.85
2023-05-01T12:35:48.505Z,0.87
2023-05-01T12:36:48.567Z,0.84
2023-05-01T12:37:48.604Z,0.85
2023-05-01T12:38:48.674Z,0.85
2023-05-01T12:39:48.725Z,0.86
2023-05-01T12:40:48.765Z,0.85
2023-05-01T12:41:48.876Z,0.84
2023-05-01T12:42:48.950Z,0.84
2023-05-01T12:43:48.952Z,0.86
2023-05-01T12:44:49.044Z,0.86
2023-05-01T12:45:49.060Z,0.83
2023-05-01T12:46:49.166Z,0.86
2023-05-01T12:47:49.261Z,0.87
2023-05-01T12:48:49.320Z,0.83
2023-05-01T12:49:49.330Z,0.85
2023-05-01T12:50:51.067Z,0.86
2023-05-01T12:51:49.416Z,0.86
2023-05-01T12:52:49.528Z,0.84
2023-05-01T12:53:49.534Z,0.87
2023-05-01T12:54:49.642Z,0.85
2023-05-01T12:55:49.680Z,0.85
2023-05-01T12:56:49.696Z,0.85
2023-05-01T12:57:49.738Z,0.86
2023-05-01T12:58:49.772Z,0.86
2023-05-01T12:59:49.893Z,0.84
2023-05-01T13:00:49.888Z,0.87
2023-05-01T13:01:50.030Z,0.86
2023-05-01T13:02:50.186Z,0.87
2023-05-01T13:03:50.114Z,0.85
2023-05-01T13:04:50.124Z,0.85
2023-05-01T13:05:50.164Z,0.87
2023-05-01T13:06:50.481Z,0.85
2023-05-01T13:07:50.237Z,0.85
2023-05-01T13:13:09.647Z,0.50
2023-05-01T13:14:02.148Z,0.50
2023-05-01T13:15:02.156Z,0.50
2023-05-01T13:16:02.206Z,0.50
2023-05-01T13:17:02.138Z,0.50
2023-05-01T13:18:02.197Z,0.50
2023-05-01T13:19:02.139Z,0.49
2023-05-01T13:20:02.432Z,0.50
2023-05-01T13:21:02.145Z,0.50
2023-05-01T13:22:02.098Z,0.50
2023-05-01T13:23:02.112Z,0.50